»·PEaware :: N851TX KABQ-KLAS

N851TX :: KABQ-KLAS

FLIGHT INFORMATION

Flight Status: Arrived
Operator: Privately registered:
United States
More flights under this callsign
Pilot: Andrew J. (13363)
Aircraft: SOCATA TBM-900
(TBM9)
More flights by this aircraft type
Origin: KABQ Albuquerque Intl Sunport
United States
Destination: KLAS McCarran Intl
United States
More flights between these airports :: More routes between these airports
Route: ABQ3 GUP J72 PGS KADDY2
File this flight plan on PilotEdge
Remarks:
Altitude:
(Current/Filed)
30,000ft
Speed:
(Current/Filed)
315kts
Departed: 02-Aug-18 09:52 PM
Arrived: 02-Aug-18 11:34 PM
Distance/Time
Traveled:
422nm/1:41
Distance/Time
To Go:
Arrived

Flight Plot

Page will automatically refresh every two minutes.

Flight plan parsing failed; only flown route is shown


Map Options




Map Legend


Flown Route
Filed Route
Departure Airport
Arrival Airport
Navaid (VOR, NDB)
Fix

Horizontal Profiles

Position Reports

Time Latitude Longitude Heading Altitude Ground
Speed
02-Aug-18 21:43 35.035843 -106.619025 44 5357ft 0kts
02-Aug-18 21:44 35.035843 -106.619025 44 5357ft 0kts
02-Aug-18 21:45 35.035843 -106.619025 44 5357ft 0kts
02-Aug-18 21:46 35.035843 -106.619025 44 5357ft 0kts
02-Aug-18 21:47 35.035843 -106.619025 44 5357ft 0kts
02-Aug-18 21:48 35.035843 -106.619025 44 5357ft 0kts
02-Aug-18 21:49 35.035843 -106.619025 44 5357ft 0kts
02-Aug-18 21:50 35.035834 -106.618615 135 5357ft 4kts
02-Aug-18 21:51 35.034256 -106.618501 155 5357ft 10kts
02-Aug-18 21:52 35.031298 -106.621800 225 5357ft 17kts
02-Aug-18 21:53 35.032922 -106.617657 41 5357ft 88kts
02-Aug-18 21:54 35.062291 -106.600512 327 6675ft 159kts
02-Aug-18 21:55 35.079118 -106.650934 288 8626ft 165kts
02-Aug-18 21:56 35.090601 -106.705935 280 10433ft 170kts
02-Aug-18 21:57 35.100827 -106.760594 281 12211ft 167kts
02-Aug-18 21:58 35.111321 -106.816653 280 14079ft 172kts
02-Aug-18 21:59 35.121796 -106.872921 281 16180ft 172kts
02-Aug-18 22:00 35.132350 -106.929763 282 18210ft 174kts
02-Aug-18 22:01 35.143067 -106.987603 283 20132ft 179kts
02-Aug-18 22:02 35.154053 -107.047000 284 22127ft 182kts
02-Aug-18 22:03 35.165326 -107.108036 283 23890ft 187kts
02-Aug-18 22:04 35.176868 -107.170836 283 25485ft 192kts
02-Aug-18 22:05 35.188638 -107.235096 283 26981ft 197kts
02-Aug-18 22:06 35.200677 -107.301045 283 28321ft 201kts
02-Aug-18 22:07 35.212913 -107.368285 283 29524ft 205kts
02-Aug-18 22:08 35.225540 -107.437889 283 30338ft 221kts
02-Aug-18 22:09 35.239905 -107.517508 283 30368ft 254kts
02-Aug-18 22:10 35.255565 -107.604467 283 30360ft 269kts
02-Aug-18 22:11 35.271749 -107.694834 283 30361ft 276kts
02-Aug-18 22:12 35.288184 -107.787007 283 30359ft 280kts
02-Aug-18 22:13 35.304770 -107.880458 283 30358ft 281kts
02-Aug-18 22:14 35.321256 -107.973799 283 30357ft 281kts
02-Aug-18 22:15 35.337697 -108.067333 283 30357ft 282kts
02-Aug-18 22:16 35.354102 -108.161104 283 30356ft 282kts
02-Aug-18 22:17 35.370409 -108.254772 283 30356ft 282kts
02-Aug-18 22:18 35.386636 -108.348432 283 30355ft 282kts
02-Aug-18 22:19 35.402810 -108.442238 283 30355ft 282kts
02-Aug-18 22:20 35.418917 -108.536120 283 30354ft 281kts
02-Aug-18 22:21 35.434901 -108.629743 283 30354ft 281kts
02-Aug-18 22:22 35.450720 -108.722858 282 30358ft 282kts
02-Aug-18 22:23 35.466636 -108.816994 282 30357ft 282kts
02-Aug-18 22:24 35.477852 -108.911721 275 30357ft 283kts
02-Aug-18 22:25 35.482870 -109.008015 274 30356ft 283kts
02-Aug-18 22:26 35.487656 -109.104089 274 30356ft 283kts
02-Aug-18 22:27 35.492389 -109.200829 273 30355ft 284kts
02-Aug-18 22:28 35.497037 -109.297650 273 30355ft 285kts
02-Aug-18 22:29 35.501620 -109.394496 273 30355ft 285kts
02-Aug-18 22:30 35.506134 -109.491533 273 30354ft 285kts
02-Aug-18 22:31 35.510568 -109.588539 273 30352ft 285kts
02-Aug-18 22:32 35.514617 -109.678679 273 30356ft 285kts
02-Aug-18 22:33 35.518921 -109.776096 273 30326ft 286kts
02-Aug-18 22:34 35.523151 -109.873683 273 30289ft 287kts
02-Aug-18 22:35 35.527312 -109.971484 273 30265ft 287kts
02-Aug-18 22:36 35.531393 -110.069316 273 30264ft 286kts
02-Aug-18 22:37 35.535382 -110.166839 273 30264ft 286kts
02-Aug-18 22:38 35.539280 -110.264076 273 30264ft 286kts
02-Aug-18 22:39 35.543102 -110.361367 273 30263ft 286kts
02-Aug-18 22:40 35.546851 -110.458806 273 30263ft 286kts
02-Aug-18 22:41 35.550516 -110.556113 273 30263ft 285kts
02-Aug-18 22:42 35.554092 -110.653115 272 30263ft 285kts
02-Aug-18 22:43 35.557601 -110.750410 272 30266ft 286kts
02-Aug-18 22:44 35.561042 -110.848022 272 30265ft 286kts
02-Aug-18 22:45 35.564424 -110.945560 272 30265ft 286kts
02-Aug-18 22:46 35.567710 -111.043082 271 30265ft 285kts
02-Aug-18 22:47 35.570888 -111.140153 270 30268ft 285kts
02-Aug-18 22:48 35.573973 -111.237085 270 30319ft 284kts
02-Aug-18 22:49 35.576984 -111.333560 270 30370ft 283kts
02-Aug-18 22:50 35.579918 -111.430029 270 30392ft 284kts
02-Aug-18 22:51 35.582563 -111.526894 269 30391ft 284kts
02-Aug-18 22:52 35.584582 -111.623971 269 30390ft 285kts
02-Aug-18 22:53 35.586481 -111.719628 269 30382ft 285kts
02-Aug-18 22:54 35.588322 -111.816208 269 30370ft 286kts
02-Aug-18 22:55 35.590571 -111.912991 270 30365ft 286kts
02-Aug-18 22:56 35.593612 -112.009642 270 30365ft 286kts
02-Aug-18 22:57 35.596578 -112.105743 270 30365ft 286kts
02-Aug-18 22:58 35.599479 -112.202234 270 30365ft 285kts
02-Aug-18 22:59 35.602318 -112.299237 270 30365ft 285kts
02-Aug-18 23:00 35.604984 -112.396382 269 30365ft 285kts
02-Aug-18 23:01 35.607097 -112.493755 269 30365ft 285kts
02-Aug-18 23:02 35.609116 -112.591246 269 30364ft 285kts
02-Aug-18 23:03 35.611032 -112.687580 269 30369ft 285kts
02-Aug-18 23:04 35.612895 -112.785012 269 30368ft 285kts
02-Aug-18 23:05 35.614692 -112.882412 268 30366ft 285kts
02-Aug-18 23:06 35.616392 -112.979381 268 30361ft 283kts
02-Aug-18 23:07 35.617934 -113.072229 267 30339ft 281kts
02-Aug-18 23:08 35.619426 -113.167104 267 29826ft 294kts
02-Aug-18 23:09 35.620809 -113.258388 268 28376ft 313kts
02-Aug-18 23:10 35.622144 -113.350798 268 26942ft 321kts
02-Aug-18 23:11 35.623570 -113.455656 268 25326ft 324kts
02-Aug-18 23:12 35.627851 -113.565787 277 23618ft 327kts
02-Aug-18 23:13 35.642749 -113.670252 276 22097ft 318kts
02-Aug-18 23:14 35.657366 -113.772917 277 20644ft 312kts
02-Aug-18 23:15 35.672081 -113.876920 277 19161ft 310kts
02-Aug-18 23:16 35.686678 -113.980761 277 17677ft 310kts
02-Aug-18 23:17 35.701220 -114.084890 277 16186ft 309kts
02-Aug-18 23:18 35.713159 -114.170853 277 14941ft 301kts
02-Aug-18 23:19 35.729052 -114.286114 277 13181ft 290kts
02-Aug-18 23:20 35.748787 -114.379858 314 12024ft 287kts
02-Aug-18 23:21 35.818080 -114.420470 334 12038ft 274kts
02-Aug-18 23:22 35.876068 -114.451989 334 11353ft 286kts
02-Aug-18 23:23 35.945699 -114.497599 326 10372ft 278kts
02-Aug-18 23:24 36.018830 -114.556587 321 9374ft 266kts
02-Aug-18 23:25 36.064787 -114.603781 309 8398ft 267kts
02-Aug-18 23:26 36.102648 -114.678207 301 7668ft 256kts
02-Aug-18 23:27 36.138958 -114.751764 301 7037ft 251kts
02-Aug-18 23:28 36.134807 -114.834223 261 7025ft 243kts
02-Aug-18 23:29 36.122379 -114.917103 261 6574ft 254kts
02-Aug-18 23:30 36.110260 -115.005413 261 5586ft 261kts
02-Aug-18 23:31 36.109574 -115.087352 271 4581ft 224kts
02-Aug-18 23:32 36.110584 -115.159949 258 3695ft 181kts
02-Aug-18 23:33 36.078960 -115.188786 180 2767ft 106kts
02-Aug-18 23:34 36.080078 -115.167617 25 2151ft 78kts
02-Aug-18 23:35 36.092117 -115.160719 23 2144ft 30kts
02-Aug-18 23:36 36.096748 -115.159593 24 2144ft 18kts
02-Aug-18 23:37 36.100186 -115.159365 293 2144ft 9kts
02-Aug-18 23:38 36.099877 -115.159398 113 2144ft 0kts
02-Aug-18 23:39 36.099877 -115.159398 113 2144ft 0kts
02-Aug-18 23:40 36.099877 -115.159398 113 2144ft 0kts
02-Aug-18 23:41 36.099877 -115.159398 113 2144ft 0kts
02-Aug-18 23:42 36.099877 -115.159398 113 2144ft 0kts

Navigation Log

Ident Type
Flight plan parsing failed, navigation log unavailable